sensor_id;sensor_type;location;lat;lon;timestamp;pressure;altitude;pressure_sealevel;temperature;humidity
10921;BME280;5513;50.580;8.818;2023-02-20T00:00:36;100056.22;;;8.19;100.00
10921;BME280;5513;50.580;8.818;2023-02-20T00:03:05;100035.31;;;7.91;100.00
10921;BME280;5513;50.580;8.818;2023-02-20T00:05:34;100049.00;;;8.00;100.00
10921;BME280;5513;50.580;8.818;2023-02-20T00:08:02;100046.09;;;8.08;100.00
10921;BME280;5513;50.580;8.818;2023-02-20T00:10:31;100041.72;;;8.07;100.00
10921;BME280;5513;50.580;8.818;2023-02-20T00:13:04;100036.56;;;7.82;100.00
10921;BME280;5513;50.580;8.818;2023-02-20T00:15:32;100051.78;;;7.97;100.00
10921;BME280;5513;50.580;8.818;2023-02-20T00:18:00;100055.13;;;7.79;100.00
10921;BME280;5513;50.580;8.818;2023-02-20T00:20:28;100051.72;;;7.99;100.00
10921;BME280;5513;50.580;8.818;2023-02-20T00:22:59;100056.28;;;7.72;100.00
10921;BME280;5513;50.580;8.818;2023-02-20T00:25:27;100048.72;;;7.86;100.00
10921;BME280;5513;50.580;8.818;2023-02-20T00:27:55;100043.06;;;7.95;100.00
10921;BME280;5513;50.580;8.818;2023-02-20T00:30:26;100044.94;;;7.70;100.00
10921;BME280;5513;50.580;8.818;2023-02-20T00:32:56;100041.34;;;7.72;100.00
10921;BME280;5513;50.580;8.818;2023-02-20T00:35:25;100040.28;;;7.77;100.00
10921;BME280;5513;50.580;8.818;2023-02-20T00:37:54;100047.97;;;7.59;100.00
10921;BME280;5513;50.580;8.818;2023-02-20T00:40:24;100044.34;;;7.62;100.00
10921;BME280;5513;50.580;8.818;2023-02-20T00:42:52;100045.06;;;7.67;100.00
10921;BME280;5513;50.580;8.818;2023-02-20T00:45:25;100040.56;;;7.69;100.00
10921;BME280;5513;50.580;8.818;2023-02-20T00:47:53;100041.22;;;7.75;100.00
10921;BME280;5513;50.580;8.818;2023-02-20T00:50:21;100042.88;;;7.78;100.00
10921;BME280;5513;50.580;8.818;2023-02-20T00:52:50;100042.22;;;7.71;100.00
10921;BME280;5513;50.580;8.818;2023-02-20T00:55:18;100058.59;;;7.58;100.00
10921;BME280;5513;50.580;8.818;2023-02-20T00:57:47;100044.75;;;7.51;100.00
10921;BME280;5513;50.580;8.818;2023-02-20T01:00:26;100043.63;;;7.58;100.00
10921;BME280;5513;50.580;8.818;2023-02-20T01:02:55;100045.84;;;7.69;100.00
10921;BME280;5513;50.580;8.818;2023-02-20T01:05:23;100042.94;;;7.53;100.00
10921;BME280;5513;50.580;8.818;2023-02-20T01:07:52;100030.28;;;7.63;100.00
10921;BME280;5513;50.580;8.818;2023-02-20T01:10:21;100031.75;;;7.70;100.00
10921;BME280;5513;50.580;8.818;2023-02-20T01:12:50;100028.34;;;7.44;100.00
10921;BME280;5513;50.580;8.818;2023-02-20T01:15:18;100036.34;;;7.41;100.00
10921;BME280;5513;50.580;8.818;2023-02-20T01:17:48;100032.34;;;7.55;100.00
10921;BME280;5513;50.580;8.818;2023-02-20T01:20:16;100029.78;;;7.53;100.00
10921;BME280;5513;50.580;8.818;2023-02-20T01:22:44;100032.63;;;7.47;100.00
10921;BME280;5513;50.580;8.818;2023-02-20T01:25:15;100027.69;;;7.38;100.00
10921;BME280;5513;50.580;8.818;2023-02-20T01:27:43;100027.09;;;7.30;100.00
10921;BME280;5513;50.580;8.818;2023-02-20T01:30:11;100037.38;;;7.12;100.00
10921;BME280;5513;50.580;8.818;2023-02-20T01:32:41;100041.38;;;6.99;100.00
10921;BME280;5513;50.580;8.818;2023-02-20T01:35:11;100038.56;;;7.04;100.00
10921;BME280;5513;50.580;8.818;2023-02-20T01:37:40;100038.53;;;7.05;100.00
10921;BME280;5513;50.580;8.818;2023-02-20T01:40:14;100037.69;;;7.05;100.00
10921;BME280;5513;50.580;8.818;2023-02-20T01:42:43;100036.13;;;6.99;100.00
10921;BME280;5513;50.580;8.818;2023-02-20T01:45:17;100036.44;;;7.15;100.00
10921;BME280;5513;50.580;8.818;2023-02-20T01:47:46;100030.97;;;6.96;100.00
10921;BME280;5513;50.580;8.818;2023-02-20T01:50:19;100029.13;;;6.98;100.00
10921;BME280;5513;50.580;8.818;2023-02-20T01:52:50;100027.84;;;7.10;100.00
10921;BME280;5513;50.580;8.818;2023-02-20T01:55:21;100031.06;;;6.93;100.00
10921;BME280;5513;50.580;8.818;2023-02-20T01:57:55;100022.72;;;6.80;100.00
10921;BME280;5513;50.580;8.818;2023-02-20T02:00:24;100011.75;;;6.93;100.00
10921;BME280;5513;50.580;8.818;2023-02-20T02:02:55;100028.00;;;6.80;100.00
10921;BME280;5513;50.580;8.818;2023-02-20T02:05:27;100021.00;;;7.04;100.00
10921;BME280;5513;50.580;8.818;2023-02-20T02:07:57;100021.44;;;6.92;100.00
10921;BME280;5513;50.580;8.818;2023-02-20T02:10:30;100031.66;;;7.01;100.00
10921;BME280;5513;50.580;8.818;2023-02-20T02:13:00;100029.34;;;6.92;100.00
10921;BME280;5513;50.580;8.818;2023-02-20T02:15:29;100034.53;;;6.94;100.00
10921;BME280;5513;50.580;8.818;2023-02-20T02:18:10;100025.63;;;6.98;100.00
10921;BME280;5513;50.580;8.818;2023-02-20T02:21:33;100022.28;;;6.93;100.00
10921;BME280;5513;50.580;8.818;2023-02-20T02:30:30;100014.25;;;6.97;100.00
10921;BME280;5513;50.580;8.818;2023-02-20T02:39:26;99996.22;;;6.85;100.00
10921;BME280;5513;50.580;8.818;2023-02-20T02:42:04;99993.34;;;6.68;100.00
10921;BME280;5513;50.580;8.818;2023-02-20T02:44:39;99993.97;;;6.74;100.00
10921;BME280;5513;50.580;8.818;2023-02-20T02:47:17;99993.38;;;6.91;100.00
10921;BME280;5513;50.580;8.818;2023-02-20T02:49:53;99986.88;;;7.01;100.00
10921;BME280;5513;50.580;8.818;2023-02-20T02:52:23;99977.91;;;7.07;100.00
10921;BME280;5513;50.580;8.818;2023-02-20T02:55:15;99992.06;;;7.03;100.00
10921;BME280;5513;50.580;8.818;2023-02-20T02:57:44;99988.78;;;6.98;100.00
10921;BME280;5513;50.580;8.818;2023-02-20T03:00:17;99988.00;;;6.94;100.00
10921;BME280;5513;50.580;8.818;2023-02-20T03:02:54;99978.63;;;7.10;100.00
10921;BME280;5513;50.580;8.818;2023-02-20T03:05:28;99985.66;;;6.86;100.00
10921;BME280;5513;50.580;8.818;2023-02-20T03:08:09;99984.94;;;7.06;100.00
10921;BME280;5513;50.580;8.818;2023-02-20T03:10:50;99994.28;;;7.15;100.00
10921;BME280;5513;50.580;8.818;2023-02-20T03:13:20;99985.03;;;7.03;100.00
10921;BME280;5513;50.580;8.818;2023-02-20T03:15:50;99994.88;;;6.73;100.00
10921;BME280;5513;50.580;8.818;2023-02-20T03:18:28;99994.25;;;6.67;100.00
10921;BME280;5513;50.580;8.818;2023-02-20T03:21:06;99989.25;;;6.59;100.00
10921;BME280;5513;50.580;8.818;2023-02-20T03:23:40;99991.88;;;6.59;100.00
10921;BME280;5513;50.580;8.818;2023-02-20T03:26:17;99992.25;;;6.48;100.00
10921;BME280;5513;50.580;8.818;2023-02-20T03:28:52;99984.75;;;6.36;100.00
10921;BME280;5513;50.580;8.818;2023-02-20T03:31:27;99987.50;;;6.33;100.00
10921;BME280;5513;50.580;8.818;2023-02-20T03:34:00;99995.63;;;6.25;100.00
10921;BME280;5513;50.580;8.818;2023-02-20T03:36:51;100000.16;;;6.22;100.00
10921;BME280;5513;50.580;8.818;2023-02-20T03:39:41;100002.72;;;6.23;100.00
10921;BME280;5513;50.580;8.818;2023-02-20T03:42:33;99998.22;;;6.27;100.00
10921;BME280;5513;50.580;8.818;2023-02-20T03:45:21;99990.47;;;6.49;100.00
10921;BME280;5513;50.580;8.818;2023-02-20T03:47:53;99992.31;;;6.47;100.00
10921;BME280;5513;50.580;8.818;2023-02-20T03:50:25;99989.63;;;6.48;100.00
10921;BME280;5513;50.580;8.818;2023-02-20T03:52:54;99981.00;;;6.43;100.00
10921;BME280;5513;50.580;8.818;2023-02-20T03:55:22;99982.97;;;6.37;100.00
10921;BME280;5513;50.580;8.818;2023-02-20T03:57:54;99979.22;;;6.19;100.00
10921;BME280;5513;50.580;8.818;2023-02-20T04:00:26;99986.44;;;6.12;100.00
10921;BME280;5513;50.580;8.818;2023-02-20T04:02:59;99986.38;;;6.14;100.00
10921;BME280;5513;50.580;8.818;2023-02-20T04:05:33;99980.47;;;6.34;100.00
10921;BME280;5513;50.580;8.818;2023-02-20T04:08:07;99984.00;;;6.32;100.00
10921;BME280;5513;50.580;8.818;2023-02-20T04:10:42;99983.44;;;6.23;100.00
10921;BME280;5513;50.580;8.818;2023-02-20T04:13:14;99981.56;;;6.26;100.00
10921;BME280;5513;50.580;8.818;2023-02-20T04:15:45;99973.41;;;6.09;100.00
10921;BME280;5513;50.580;8.818;2023-02-20T04:18:15;99981.06;;;6.15;100.00
10921;BME280;5513;50.580;8.818;2023-02-20T04:20:45;99981.97;;;6.14;100.00
10921;BME280;5513;50.580;8.818;2023-02-20T04:23:17;99973.19;;;6.15;100.00
10921;BME280;5513;50.580;8.818;2023-02-20T04:25:50;99970.78;;;6.08;100.00
10921;BME280;5513;50.580;8.818;2023-02-20T04:28:21;99967.34;;;6.06;100.00
10921;BME280;5513;50.580;8.818;2023-02-20T04:30:50;99963.41;;;5.92;100.00
10921;BME280;5513;50.580;8.818;2023-02-20T04:33:20;99963.63;;;5.85;100.00
10921;BME280;5513;50.580;8.818;2023-02-20T04:35:48;99958.47;;;6.10;100.00
10921;BME280;5513;50.580;8.818;2023-02-20T04:38:18;99965.22;;;6.18;100.00
10921;BME280;5513;50.580;8.818;2023-02-20T04:40:47;99966.91;;;6.19;100.00
10921;BME280;5513;50.580;8.818;2023-02-20T04:43:16;99966.25;;;6.13;100.00
10921;BME280;5513;50.580;8.818;2023-02-20T04:45:46;99962.34;;;6.24;100.00
10921;BME280;5513;50.580;8.818;2023-02-20T04:48:14;99958.66;;;6.30;100.00
10921;BME280;5513;50.580;8.818;2023-02-20T04:50:42;99961.56;;;6.22;100.00
10921;BME280;5513;50.580;8.818;2023-02-20T04:53:11;99948.50;;;6.19;100.00
10921;BME280;5513;50.580;8.818;2023-02-20T04:55:39;99954.69;;;6.18;100.00
10921;BME280;5513;50.580;8.818;2023-02-20T04:58:07;99963.94;;;6.03;100.00
10921;BME280;5513;50.580;8.818;2023-02-20T05:00:36;99962.75;;;6.12;100.00
10921;BME280;5513;50.580;8.818;2023-02-20T05:03:06;99958.41;;;6.11;100.00
10921;BME280;5513;50.580;8.818;2023-02-20T05:05:34;99956.19;;;5.99;100.00
10921;BME280;5513;50.580;8.818;2023-02-20T05:08:04;99955.53;;;5.92;100.00
10921;BME280;5513;50.580;8.818;2023-02-20T05:10:35;99940.88;;;5.84;100.00
10921;BME280;5513;50.580;8.818;2023-02-20T05:13:04;99953.09;;;5.57;100.00
10921;BME280;5513;50.580;8.818;2023-02-20T05:15:32;99963.25;;;5.39;100.00
10921;BME280;5513;50.580;8.818;2023-02-20T05:18:01;99962.97;;;5.49;100.00
10921;BME280;5513;50.580;8.818;2023-02-20T05:20:31;99965.25;;;5.61;100.00
10921;BME280;5513;50.580;8.818;2023-02-20T05:23:20;99963.38;;;5.64;100.00
10921;BME280;5513;50.580;8.818;2023-02-20T05:25:52;99966.75;;;5.69;100.00
10921;BME280;5513;50.580;8.818;2023-02-20T05:28:21;99960.94;;;5.58;100.00
10921;BME280;5513;50.580;8.818;2023-02-20T05:30:49;99986.03;;;5.40;100.00
10921;BME280;5513;50.580;8.818;2023-02-20T05:33:18;99980.41;;;5.53;100.00
10921;BME280;5513;50.580;8.818;2023-02-20T05:35:50;99962.66;;;5.59;100.00
10921;BME280;5513;50.580;8.818;2023-02-20T05:38:21;99971.16;;;5.67;100.00
10921;BME280;5513;50.580;8.818;2023-02-20T05:40:49;99967.66;;;5.96;100.00
10921;BME280;5513;50.580;8.818;2023-02-20T05:43:18;99954.44;;;5.98;100.00
10921;BME280;5513;50.580;8.818;2023-02-20T05:45:46;99946.72;;;5.93;100.00
10921;BME280;5513;50.580;8.818;2023-02-20T05:48:14;99944.72;;;6.01;100.00
10921;BME280;5513;50.580;8.818;2023-02-20T05:50:43;99948.34;;;5.97;100.00
10921;BME280;5513;50.580;8.818;2023-02-20T05:53:13;99942.03;;;6.03;100.00
10921;BME280;5513;50.580;8.818;2023-02-20T05:55:41;99939.41;;;5.75;100.00
10921;BME280;5513;50.580;8.818;2023-02-20T05:58:11;99937.69;;;5.74;100.00
10921;BME280;5513;50.580;8.818;2023-02-20T06:00:41;99925.00;;;5.87;100.00
10921;BME280;5513;50.580;8.818;2023-02-20T06:03:10;99931.06;;;5.90;100.00
10921;BME280;5513;50.580;8.818;2023-02-20T06:05:38;99931.56;;;5.73;100.00
10921;BME280;5513;50.580;8.818;2023-02-20T06:08:08;99932.31;;;5.49;100.00
10921;BME280;5513;50.580;8.818;2023-02-20T06:10:38;99928.31;;;5.65;100.00
10921;BME280;5513;50.580;8.818;2023-02-20T06:13:06;99933.03;;;5.82;100.00
10921;BME280;5513;50.580;8.818;2023-02-20T06:15:36;99925.63;;;5.95;100.00
10921;BME280;5513;50.580;8.818;2023-02-20T06:18:05;99923.88;;;5.95;100.00
10921;BME280;5513;50.580;8.818;2023-02-20T06:20:34;99931.31;;;5.81;100.00
10921;BME280;5513;50.580;8.818;2023-02-20T06:23:02;99929.69;;;5.77;100.00
10921;BME280;5513;50.580;8.818;2023-02-20T06:25:31;99923.56;;;5.77;100.00
10921;BME280;5513;50.580;8.818;2023-02-20T06:28:00;99923.44;;;5.81;100.00
10921;BME280;5513;50.580;8.818;2023-02-20T06:30:30;99926.13;;;5.80;100.00
10921;BME280;5513;50.580;8.818;2023-02-20T06:32:58;99927.09;;;5.75;100.00
10921;BME280;5513;50.580;8.818;2023-02-20T06:35:29;99926.97;;;5.80;100.00
10921;BME280;5513;50.580;8.818;2023-02-20T06:37:59;99926.13;;;5.80;100.00
10921;BME280;5513;50.580;8.818;2023-02-20T06:40:28;99917.63;;;5.71;100.00
10921;BME280;5513;50.580;8.818;2023-02-20T06:42:56;99928.78;;;5.78;100.00
10921;BME280;5513;50.580;8.818;2023-02-20T06:45:26;99924.44;;;5.77;100.00
10921;BME280;5513;50.580;8.818;2023-02-20T06:47:54;99915.63;;;5.78;100.00
10921;BME280;5513;50.580;8.818;2023-02-20T06:50:23;99927.88;;;5.79;100.00
10921;BME280;5513;50.580;8.818;2023-02-20T06:52:51;99925.84;;;5.87;100.00
10921;BME280;5513;50.580;8.818;2023-02-20T06:55:21;99928.44;;;5.90;100.00
10921;BME280;5513;50.580;8.818;2023-02-20T06:57:49;99937.97;;;5.93;100.00
10921;BME280;5513;50.580;8.818;2023-02-20T07:00:20;99932.13;;;6.11;100.00
10921;BME280;5513;50.580;8.818;2023-02-20T07:02:50;99940.00;;;6.11;100.00
10921;BME280;5513;50.580;8.818;2023-02-20T07:05:19;99937.06;;;6.20;100.00
10921;BME280;5513;50.580;8.818;2023-02-20T07:07:47;99930.94;;;6.20;100.00
10921;BME280;5513;50.580;8.818;2023-02-20T07:10:16;99937.44;;;6.35;100.00
10921;BME280;5513;50.580;8.818;2023-02-20T07:12:45;99937.50;;;6.33;100.00
10921;BME280;5513;50.580;8.818;2023-02-20T07:15:16;99930.69;;;6.27;100.00
10921;BME280;5513;50.580;8.818;2023-02-20T07:17:45;99936.59;;;6.34;100.00
10921;BME280;5513;50.580;8.818;2023-02-20T07:20:15;99932.66;;;6.46;100.00
10921;BME280;5513;50.580;8.818;2023-02-20T07:22:48;99927.88;;;6.58;100.00
10921;BME280;5513;50.580;8.818;2023-02-20T07:25:17;99933.50;;;6.48;100.00
10921;BME280;5513;50.580;8.818;2023-02-20T07:27:45;99924.09;;;6.41;100.00
10921;BME280;5513;50.580;8.818;2023-02-20T07:30:15;99920.97;;;6.29;100.00
10921;BME280;5513;50.580;8.818;2023-02-20T07:32:43;99920.31;;;6.23;100.00
10921;BME280;5513;50.580;8.818;2023-02-20T07:35:15;99927.03;;;6.31;100.00
10921;BME280;5513;50.580;8.818;2023-02-20T07:37:44;99926.06;;;6.34;100.00
10921;BME280;5513;50.580;8.818;2023-02-20T07:40:12;99920.66;;;6.39;100.00
10921;BME280;5513;50.580;8.818;2023-02-20T07:42:40;99920.59;;;6.65;100.00
10921;BME280;5513;50.580;8.818;2023-02-20T07:45:09;99914.97;;;6.76;100.00
10921;BME280;5513;50.580;8.818;2023-02-20T07:47:38;99920.75;;;6.85;100.00
10921;BME280;5513;50.580;8.818;2023-02-20T07:50:07;99913.81;;;6.83;100.00
10921;BME280;5513;50.580;8.818;2023-02-20T07:52:36;99907.53;;;6.87;100.00
10921;BME280;5513;50.580;8.818;2023-02-20T07:55:07;99903.59;;;6.74;100.00
10921;BME280;5513;50.580;8.818;2023-02-20T07:57:36;99899.09;;;6.77;100.00
10921;BME280;5513;50.580;8.818;2023-02-20T08:00:06;99907.09;;;6.74;100.00
10921;BME280;5513;50.580;8.818;2023-02-20T08:02:35;99897.66;;;6.69;100.00
10921;BME280;5513;50.580;8.818;2023-02-20T08:05:03;99895.31;;;6.61;100.00
10921;BME280;5513;50.580;8.818;2023-02-20T08:07:31;99890.91;;;6.62;100.00
10921;BME280;5513;50.580;8.818;2023-02-20T08:10:03;99894.56;;;6.81;100.00
10921;BME280;5513;50.580;8.818;2023-02-20T08:12:32;99899.91;;;6.79;100.00
10921;BME280;5513;50.580;8.818;2023-02-20T08:15:00;99892.59;;;6.63;100.00
10921;BME280;5513;50.580;8.818;2023-02-20T08:17:28;99888.13;;;6.89;100.00
10921;BME280;5513;50.580;8.818;2023-02-20T08:20:11;99890.09;;;6.83;100.00
10921;BME280;5513;50.580;8.818;2023-02-20T08:22:40;99894.13;;;6.93;100.00
10921;BME280;5513;50.580;8.818;2023-02-20T08:25:10;99898.66;;;6.89;100.00
10921;BME280;5513;50.580;8.818;2023-02-20T08:27:40;99891.59;;;6.90;100.00
10921;BME280;5513;50.580;8.818;2023-02-20T08:30:11;99894.94;;;6.95;100.00
10921;BME280;5513;50.580;8.818;2023-02-20T08:32:40;99894.53;;;7.06;100.00
10921;BME280;5513;50.580;8.818;2023-02-20T08:35:08;99887.75;;;7.22;100.00
10921;BME280;5513;50.580;8.818;2023-02-20T08:37:37;99891.22;;;7.46;100.00
10921;BME280;5513;50.580;8.818;2023-02-20T08:40:08;99887.59;;;7.49;100.00
10921;BME280;5513;50.580;8.818;2023-02-20T08:42:39;99887.09;;;7.61;100.00
10921;BME280;5513;50.580;8.818;2023-02-20T08:45:09;99892.78;;;7.50;100.00
10921;BME280;5513;50.580;8.818;2023-02-20T08:47:38;99886.44;;;7.56;100.00
10921;BME280;5513;50.580;8.818;2023-02-20T08:50:06;99883.09;;;7.51;100.00
10921;BME280;5513;50.580;8.818;2023-02-20T08:52:35;99888.78;;;7.63;100.00
10921;BME280;5513;50.580;8.818;2023-02-20T08:55:04;99875.94;;;7.76;100.00
10921;BME280;5513;50.580;8.818;2023-02-20T08:57:32;99880.09;;;7.60;100.00
10921;BME280;5513;50.580;8.818;2023-02-20T09:00:04;99880.25;;;7.57;100.00
10921;BME280;5513;50.580;8.818;2023-02-20T09:02:32;99878.47;;;7.35;100.00
10921;BME280;5513;50.580;8.818;2023-02-20T09:05:00;99868.84;;;7.56;100.00
10921;BME280;5513;50.580;8.818;2023-02-20T09:07:29;99879.47;;;7.31;100.00
10921;BME280;5513;50.580;8.818;2023-02-20T09:09:58;99883.41;;;7.43;100.00
10921;BME280;5513;50.580;8.818;2023-02-20T09:12:26;99879.81;;;7.45;100.00
10921;BME280;5513;50.580;8.818;2023-02-20T09:14:56;99876.94;;;7.73;100.00
10921;BME280;5513;50.580;8.818;2023-02-20T09:17:28;99878.22;;;8.06;100.00
10921;BME280;5513;50.580;8.818;2023-02-20T09:19:57;99881.94;;;8.01;100.00
10921;BME280;5513;50.580;8.818;2023-02-20T09:22:26;99867.50;;;8.30;100.00
10921;BME280;5513;50.580;8.818;2023-02-20T09:24:54;99865.78;;;8.50;100.00
10921;BME280;5513;50.580;8.818;2023-02-20T09:27:23;99861.16;;;8.55;100.00
10921;BME280;5513;50.580;8.818;2023-02-20T09:29:52;99862.03;;;8.74;100.00
10921;BME280;5513;50.580;8.818;2023-02-20T09:32:20;99861.22;;;8.93;100.00
10921;BME280;5513;50.580;8.818;2023-02-20T09:34:50;99858.50;;;9.13;100.00
10921;BME280;5513;50.580;8.818;2023-02-20T09:37:18;99848.91;;;9.29;100.00
10921;BME280;5513;50.580;8.818;2023-02-20T09:39:48;99859.69;;;9.25;100.00
10921;BME280;5513;50.580;8.818;2023-02-20T09:42:27;99854.09;;;9.50;100.00
10921;BME280;5513;50.580;8.818;2023-02-20T09:45:05;99854.50;;;9.23;100.00
10921;BME280;5513;50.580;8.818;2023-02-20T09:47:50;99854.31;;;9.45;100.00
10921;BME280;5513;50.580;8.818;2023-02-20T09:50:29;99844.44;;;9.67;100.00
10921;BME280;5513;50.580;8.818;2023-02-20T09:53:02;99834.84;;;9.82;100.00
10921;BME280;5513;50.580;8.818;2023-02-20T09:55:35;99834.69;;;10.02;100.00
10921;BME280;5513;50.580;8.818;2023-02-20T09:58:06;99836.28;;;10.07;100.00
10921;BME280;5513;50.580;8.818;2023-02-20T10:00:39;99832.78;;;10.06;100.00
10921;BME280;5513;50.580;8.818;2023-02-20T10:03:18;99828.50;;;10.38;100.00
10921;BME280;5513;50.580;8.818;2023-02-20T10:05:49;99814.69;;;10.49;100.00
10921;BME280;5513;50.580;8.818;2023-02-20T10:08:19;99822.63;;;10.82;100.00
10921;BME280;5513;50.580;8.818;2023-02-20T10:10:50;99828.81;;;10.15;100.00
10921;BME280;5513;50.580;8.818;2023-02-20T10:13:35;99830.59;;;10.31;100.00
10921;BME280;5513;50.580;8.818;2023-02-20T10:16:21;99810.75;;;10.23;100.00
10921;BME280;5513;50.580;8.818;2023-02-20T10:19:02;99824.59;;;9.93;100.00
10921;BME280;5513;50.580;8.818;2023-02-20T10:21:45;99815.16;;;10.40;100.00
10921;BME280;5513;50.580;8.818;2023-02-20T10:24:31;99815.41;;;10.35;100.00
10921;BME280;5513;50.580;8.818;2023-02-20T10:27:15;99805.06;;;10.64;100.00
10921;BME280;5513;50.580;8.818;2023-02-20T10:29:46;99804.34;;;10.60;100.00
10921;BME280;5513;50.580;8.818;2023-02-20T10:32:18;99818.91;;;10.69;100.00
10921;BME280;5513;50.580;8.818;2023-02-20T10:34:53;99803.28;;;10.80;100.00
10921;BME280;5513;50.580;8.818;2023-02-20T10:37:28;99789.78;;;10.84;100.00
10921;BME280;5513;50.580;8.818;2023-02-20T10:40:17;99794.97;;;10.70;100.00
10921;BME280;5513;50.580;8.818;2023-02-20T10:42:52;99786.28;;;11.15;100.00
10921;BME280;5513;50.580;8.818;2023-02-20T10:45:29;99780.13;;;11.31;100.00
10921;BME280;5513;50.580;8.818;2023-02-20T10:48:03;99782.28;;;10.93;100.00
10921;BME280;5513;50.580;8.818;2023-02-20T10:50:37;99778.22;;;11.33;100.00
10921;BME280;5513;50.580;8.818;2023-02-20T10:53:17;99777.53;;;11.45;100.00
10921;BME280;5513;50.580;8.818;2023-02-20T10:55:52;99767.94;;;11.42;100.00
10921;BME280;5513;50.580;8.818;2023-02-20T10:58:28;99783.06;;;11.56;100.00
10921;BME280;5513;50.580;8.818;2023-02-20T11:00:59;99757.97;;;11.62;100.00
10921;BME280;5513;50.580;8.818;2023-02-20T11:03:35;99763.31;;;11.92;100.00
10921;BME280;5513;50.580;8.818;2023-02-20T11:06:12;99757.81;;;11.95;100.00
10921;BME280;5513;50.580;8.818;2023-02-20T11:08:45;99749.38;;;11.72;100.00
10921;BME280;5513;50.580;8.818;2023-02-20T11:11:28;99739.22;;;11.65;100.00
10921;BME280;5513;50.580;8.818;2023-02-20T11:13:58;99759.84;;;11.30;100.00
10921;BME280;5513;50.580;8.818;2023-02-20T11:16:34;99741.09;;;11.33;100.00
10921;BME280;5513;50.580;8.818;2023-02-20T11:19:11;99741.84;;;11.51;100.00
10921;BME280;5513;50.580;8.818;2023-02-20T11:21:41;99727.84;;;11.33;100.00
10921;BME280;5513;50.580;8.818;2023-02-20T11:24:35;99723.59;;;11.90;100.00
10921;BME280;5513;50.580;8.818;2023-02-20T11:27:06;99721.88;;;12.03;100.00
10921;BME280;5513;50.580;8.818;2023-02-20T11:29:41;99718.59;;;11.70;100.00
10921;BME280;5513;50.580;8.818;2023-02-20T11:32:29;99728.03;;;11.90;100.00
10921;BME280;5513;50.580;8.818;2023-02-20T11:35:26;99705.22;;;11.71;100.00
10921;BME280;5513;50.580;8.818;2023-02-20T11:38:25;99707.19;;;12.55;100.00
10921;BME280;5513;50.580;8.818;2023-02-20T11:41:22;99722.25;;;12.69;100.00
10921;BME280;5513;50.580;8.818;2023-02-20T11:44:16;99709.41;;;12.75;100.00
10921;BME280;5513;50.580;8.818;2023-02-20T11:47:08;99719.00;;;12.78;100.00
10921;BME280;5513;50.580;8.818;2023-02-20T11:49:37;99717.81;;;12.55;100.00
10921;BME280;5513;50.580;8.818;2023-02-20T11:52:08;99706.25;;;13.10;100.00
10921;BME280;5513;50.580;8.818;2023-02-20T11:54:38;99723.56;;;12.76;100.00
10921;BME280;5513;50.580;8.818;2023-02-20T11:57:19;99703.78;;;12.10;100.00
10921;BME280;5513;50.580;8.818;2023-02-20T11:59:49;99702.81;;;12.25;100.00
10921;BME280;5513;50.580;8.818;2023-02-20T12:02:25;99705.00;;;11.90;100.00
10921;BME280;5513;50.580;8.818;2023-02-20T12:05:19;99696.56;;;12.41;100.00
10921;BME280;5513;50.580;8.818;2023-02-20T12:07:56;99695.50;;;12.15;100.00
10921;BME280;5513;50.580;8.818;2023-02-20T12:10:34;99689.59;;;12.52;100.00
10921;BME280;5513;50.580;8.818;2023-02-20T12:13:12;99690.22;;;12.29;100.00
10921;BME280;5513;50.580;8.818;2023-02-20T12:15:41;99678.81;;;12.41;100.00
10921;BME280;5513;50.580;8.818;2023-02-20T12:18:25;99675.97;;;12.30;100.00
10921;BME280;5513;50.580;8.818;2023-02-20T12:21:04;99668.06;;;12.43;100.00
10921;BME280;5513;50.580;8.818;2023-02-20T12:23:45;99675.81;;;12.74;100.00
10921;BME280;5513;50.580;8.818;2023-02-20T12:26:29;99663.44;;;12.32;100.00
10921;BME280;5513;50.580;8.818;2023-02-20T12:29:10;99654.97;;;12.54;100.00
10921;BME280;5513;50.580;8.818;2023-02-20T12:31:55;99654.63;;;12.73;100.00
10921;BME280;5513;50.580;8.818;2023-02-20T12:34:40;99651.88;;;12.33;100.00
10921;BME280;5513;50.580;8.818;2023-02-20T12:37:24;99651.59;;;12.23;100.00
10921;BME280;5513;50.580;8.818;2023-02-20T12:40:03;99652.50;;;12.65;100.00
10921;BME280;5513;50.580;8.818;2023-02-20T12:42:45;99639.53;;;13.00;100.00
10921;BME280;5513;50.580;8.818;2023-02-20T12:45:26;99638.34;;;13.31;100.00
10921;BME280;5513;50.580;8.818;2023-02-20T12:48:10;99620.28;;;13.24;100.00
10921;BME280;5513;50.580;8.818;2023-02-20T12:50:46;99616.28;;;12.77;100.00
10921;BME280;5513;50.580;8.818;2023-02-20T12:53:27;99613.44;;;13.20;100.00
10921;BME280;5513;50.580;8.818;2023-02-20T12:56:07;99610.72;;;13.59;100.00
10921;BME280;5513;50.580;8.818;2023-02-20T12:58:47;99609.13;;;13.69;100.00
10921;BME280;5513;50.580;8.818;2023-02-20T13:01:20;99609.41;;;12.60;100.00
10921;BME280;5513;50.580;8.818;2023-02-20T13:04:10;99609.97;;;12.65;100.00
10921;BME280;5513;50.580;8.818;2023-02-20T13:06:45;99594.44;;;13.11;100.00
10921;BME280;5513;50.580;8.818;2023-02-20T13:09:23;99601.88;;;13.46;100.00
10921;BME280;5513;50.580;8.818;2023-02-20T13:11:57;99571.28;;;13.13;100.00
10921;BME280;5513;50.580;8.818;2023-02-20T13:14:38;99582.00;;;13.12;100.00
10921;BME280;5513;50.580;8.818;2023-02-20T13:17:20;99573.03;;;12.87;99.37
10921;BME280;5513;50.580;8.818;2023-02-20T13:19:56;99570.59;;;13.24;100.00
10921;BME280;5513;50.580;8.818;2023-02-20T13:22:27;99563.63;;;13.22;97.26
10921;BME280;5513;50.580;8.818;2023-02-20T13:25:35;99563.56;;;13.61;98.27
10921;BME280;5513;50.580;8.818;2023-02-20T13:28:27;99552.75;;;14.01;98.22
10921;BME280;5513;50.580;8.818;2023-02-20T13:31:07;99540.44;;;14.24;96.95
10921;BME280;5513;50.580;8.818;2023-02-20T13:33:39;99545.88;;;14.22;95.58
10921;BME280;5513;50.580;8.818;2023-02-20T13:36:16;99542.25;;;14.23;92.34
10921;BME280;5513;50.580;8.818;2023-02-20T13:41:59;99542.06;;;14.14;97.24
10921;BME280;5513;50.580;8.818;2023-02-20T13:44:41;99514.63;;;14.24;94.62
10921;BME280;5513;50.580;8.818;2023-02-20T13:47:35;99505.72;;;13.76;94.95
10921;BME280;5513;50.580;8.818;2023-02-20T13:50:31;99505.78;;;14.00;95.25
10921;BME280;5513;50.580;8.818;2023-02-20T13:53:02;99504.41;;;14.18;94.42
10921;BME280;5513;50.580;8.818;2023-02-20T13:55:32;99504.31;;;15.03;89.75